Terminal Aerodrome Forecast
Issued by NWS North Platte, NE

Home | Current Version | Previous Version | Text Only | Print | Product List | Glossary On
Versions: 1 2 3 4 5 6 7 8 9 10 11 12 13 14
000
FTUS43 KLBF 221733
TAFLBF
TAF
KLBF 221733Z 2218/2318 17012G22KT P6SM SCT200
     FM230200 14017G24KT P6SM BKN100 WS020/18040KT
     FM230300 14017G24KT P6SM VCTS BKN100CB WS020/18045KT
     FM230800 11013KT P6SM BKN200 WS020/19035KT
     FM231100 11011G17KT P6SM BKN130 WS012/19015KT
     FM231200 11011G17KT P6SM BKN090 PROB30 2312/2318 P6SM -TSRA
      BKN050CB=

USA.gov is the U.S. government's official web portal to all federal, state and local government web resources and services.